Time;durP1;ratioP1;P1;durP2;ratioP2;P2;SDS_P1;SDS_P2;PMS_P1;PMS_P2;Temp;Humidity;BMP_temperature;BMP_pressure;BME280_temperature;BME280_humidity;BME280_pressure;Samples;Min_cycle;Max_cycle;Signal;HPM_P1;HPM_P2
2023/09/29 04:38:36;;;;;;;3.07;1.57;;;;;;;;;;20634808;23;20239;-82
2023/09/29 04:48:39;;;;;;;2.87;1.30;;;;;;;;;;20786046;28;20236;-84
2023/09/29 04:58:40;;;;;;;2.47;1.57;;;;;;;;;;20758075;28;20230;-87
2023/09/29 05:08:49;;;;;;;3.07;1.73;;;;;;;;;;20768842;28;20397;-86
2023/09/29 05:18:57;;;;;;;2.57;1.50;;;;;;;;;;20740329;28;20228;-85
2023/09/29 05:29:00;;;;;;;3.57;1.63;;;;;;;;;;20742999;28;20230;-84
2023/09/29 05:39:03;;;;;;;2.07;1.30;;;;;;;;;;20762447;28;20231;-84
2023/09/29 05:49:05;;;;;;;2.73;1.83;;;;;;;;;;20721167;28;20754;-84
2023/09/29 05:59:07;;;;;;;3.00;1.70;;;;;;;;;;20747659;28;20214;-84
2023/09/29 06:09:09;;;;;;;3.37;1.77;;;;;;;;;;20746812;28;20795;-83
2023/09/29 06:19:11;;;;;;;4.77;1.57;;;;;;;;;;20737848;28;20219;-83
2023/09/29 06:29:14;;;;;;;3.07;1.60;;;;;;;;;;20746119;28;20246;-83
2023/09/29 06:39:16;;;;;;;4.63;1.70;;;;;;;;;;20715639;28;20758;-85
2023/09/29 06:49:18;;;;;;;2.60;1.30;;;;;;;;;;20749664;28;20266;-84
2023/09/29 06:59:28;;;;;;;2.30;1.67;;;;;;;;;;20735088;28;20223;-83
2023/09/29 07:09:48;;;;;;;4.33;1.70;;;;;;;;;;20730982;28;20235;-84
2023/09/29 07:20:04;;;;;;;2.70;1.50;;;;;;;;;;20757305;28;20968;-83
2023/09/29 07:30:55;;;;;;;2.90;1.30;;;;;;;;;;20745305;28;20805;-84
2023/09/29 07:41:10;;;;;;;2.03;1.27;;;;;;;;;;20680578;23;20708;-67
2023/09/29 07:51:12;;;;;;;3.27;1.10;;;;;;;;;;20636682;28;20213;-67
2023/09/29 08:01:14;;;;;;;2.77;1.30;;;;;;;;;;20626438;28;20294;-67
2023/09/29 08:11:16;;;;;;;2.80;1.40;;;;;;;;;;20620541;28;20333;-67
2023/09/29 08:21:17;;;;;;;2.10;1.23;;;;;;;;;;20635920;28;20563;-67
2023/09/29 08:31:20;;;;;;;1.80;1.00;;;;;;;;;;20598830;28;20284;-67
2023/09/29 08:41:25;;;;;;;3.27;1.20;;;;;;;;;;20634293;28;20275;-67
2023/09/29 08:51:29;;;;;;;1.50;1.00;;;;;;;;;;20621864;28;20260;-67
2023/09/29 09:01:31;;;;;;;1.97;0.90;;;;;;;;;;20639822;28;20320;-67
2023/09/29 09:11:43;;;;;;;1.50;0.87;;;;;;;;;;20635413;28;20255;-68
2023/09/29 09:21:46;;;;;;;2.20;1.00;;;;;;;;;;20591792;28;20284;-68
2023/09/29 09:31:52;;;;;;;1.40;1.00;;;;;;;;;;20613769;28;20225;-68
2023/09/29 09:41:59;;;;;;;1.10;0.73;;;;;;;;;;20622573;28;20317;-68
2023/09/29 09:52:03;;;;;;;2.03;0.90;;;;;;;;;;20641433;28;20230;-68
2023/09/29 10:02:06;;;;;;;2.13;1.10;;;;;;;;;;20605078;28;20288;-68
2023/09/29 10:12:09;;;;;;;2.13;0.98;;;;;;;;;;20589725;28;20632;-68
2023/09/29 10:22:21;;;;;;;1.85;1.00;;;;;;;;;;20598796;28;20284;-67
2023/09/29 10:32:31;;;;;;;1.70;0.70;;;;;;;;;;20626512;28;20641;-67
2023/09/29 10:42:34;;;;;;;1.77;0.98;;;;;;;;;;20629176;28;20283;-70
2023/09/29 10:52:35;;;;;;;1.10;0.80;;;;;;;;;;20607547;28;20278;-72
2023/09/29 11:02:37;;;;;;;1.52;0.82;;;;;;;;;;20596761;28;20234;-73
2023/09/29 11:12:43;;;;;;;3.92;1.13;;;;;;;;;;20611639;28;20222;-73
2023/09/29 11:22:45;;;;;;;1.23;0.88;;;;;;;;;;20574945;28;20239;-74
2023/09/29 11:32:47;;;;;;;2.90;1.23;;;25.40;99.90;;;;;;20529934;28;1130925;-72
2023/09/29 11:42:49;;;;;;;5.85;1.15;;;;;;;;;;20633927;28;20495;-73
2023/09/29 11:52:51;;;;;;;2.08;0.70;;;;;;;;;;20622093;28;20212;-71
2023/09/29 12:02:54;;;;;;;3.58;0.70;;;;;;;;;;20595645;28;20221;-72
2023/09/29 12:12:57;;;;;;;2.53;0.82;;;;;;;;;;20621410;28;20722;-72
2023/09/29 12:23:01;;;;;;;7.75;1.55;;;;;;;;;;20628337;28;20224;-72
2023/09/29 12:33:04;;;;;;;5.28;1.23;;;;;;;;;;20692299;23;20291;-70
2023/09/29 12:43:06;;;;;;;1.95;0.80;;;;;;;;;;20845846;28;20316;-71
2023/09/29 12:53:08;;;;;;;2.08;0.75;;;;;;;;;;20848407;28;20227;-70
2023/09/29 13:03:11;;;;;;;2.50;0.90;;;;;;;;;;20849379;28;20293;-69
2023/09/29 13:13:13;;;;;;;2.45;1.30;;;;;;;;;;20854191;28;20278;-69
2023/09/29 13:23:15;;;;;;;3.80;1.70;;;25.50;99.90;;;;;;20873177;28;20421;-70
2023/09/29 13:33:18;;;;;;;10.30;2.92;;;;;;;;;;20864703;28;20237;-70
2023/09/29 13:43:20;;;;;;;3.35;1.85;;;;;;;;;;20848226;28;20269;-68
2023/09/29 13:53:22;;;;;;;8.45;3.40;;;;;;;;;;20846396;28;20216;-70
2023/09/29 14:03:24;;;;;;;6.18;3.10;;;;;;;;;;20847137;28;20642;-69
2023/09/29 14:13:25;;;;;;;19.60;4.43;;;;;;;;;;20880527;28;20229;-68
2023/09/29 14:23:27;;;;;;;7.10;4.25;;;23.80;99.90;;;;;;20856329;28;20227;-68
2023/09/29 14:33:30;;;;;;;10.13;5.82;;;;;;;;;;20859658;28;20230;-69
2023/09/29 14:43:32;;;;;;;14.23;6.40;;;;;;;;;;20861896;28;20599;-69
2023/09/29 14:53:35;;;;;;;9.75;5.63;;;;;;;;;;20807754;28;20684;-68
2023/09/29 15:03:37;;;;;;;8.63;4.60;;;;;;;;;;20842921;28;20222;-64
2023/09/29 15:13:39;;;;;;;9.73;4.72;;;;;;;;;;20839749;28;20766;-65
2023/09/29 15:23:42;;;;;;;9.73;5.00;;;23.40;99.90;;;;;;20887761;28;20238;-65
2023/09/29 15:33:44;;;;;;;9.07;4.45;;;;;;;;;;20876979;28;20599;-65
2023/09/29 15:43:46;;;;;;;8.40;4.65;;;;;;;;;;20881550;28;20213;-66
2023/09/29 15:53:48;;;;;;;8.73;4.45;;;;;;;;;;20846306;28;20215;-66
2023/09/29 16:03:50;;;;;;;10.23;3.92;;;;;;;;;;20838046;28;20380;-66
2023/09/29 16:13:52;;;;;;;7.20;3.38;;;;;;;;;;20860615;28;20215;-66
2023/09/29 16:23:53;;;;;;;5.75;2.58;;;;;;;;;;20871869;28;20217;-66
2023/09/29 16:33:55;;;;;;;5.90;2.72;;;;;;;;;;20849630;28;20248;-66
2023/09/29 16:43:58;;;;;;;6.55;2.20;;;22.70;99.90;;;;;;20868766;28;20223;-66
2023/09/29 16:54:01;;;;;;;4.28;1.85;;;;;;;;;;20890222;28;20279;-66
2023/09/29 17:04:03;;;;;;;4.38;2.00;;;;;;;;;;20858765;28;20221;-66
2023/09/29 17:14:05;;;;;;;1.95;0.90;;;;;;;;;;20858654;28;20742;-66
2023/09/29 17:24:07;;;;;;;2.75;1.05;;;;;;;;;;20847612;28;20226;-65
2023/09/29 17:34:09;;;;;;;2.33;1.05;;;;;;;;;;20871680;28;20295;-66
2023/09/29 17:44:13;;;;;;;3.65;1.02;;;;;;;;;;20814103;28;20227;-67
2023/09/29 17:54:16;;;;;;;1.75;0.75;;;;;;;;;;20837088;28;20210;-66
2023/09/29 18:04:18;;;;;;;1.50;0.70;;;;;;;;;;20820762;28;20721;-66
2023/09/29 18:14:20;;;;;;;2.05;0.77;;;;;;;;;;20848259;28;20209;-66
2023/09/29 18:24:22;;;;;;;1.77;0.73;;;;;;;;;;20869556;28;20770;-66
2023/09/29 18:34:24;;;;;;;1.90;0.68;;;;;;;;;;20859897;28;20228;-66
2023/09/29 18:44:27;;;;;;;1.92;0.80;;;;;;;;;;20889196;23;20275;-78
2023/09/29 18:54:29;;;;;;;1.48;0.80;;;;;;;;;;20861746;28;20267;-77
2023/09/29 19:04:32;;;;;;;1.85;0.80;;;;;;;;;;20889955;28;20278;-78
2023/09/29 19:14:33;;;;;;;1.95;1.00;;;;;;;;;;20853592;28;20194;-78
2023/09/29 19:24:35;;;;;;;1.92;0.80;;;;;;;;;;20889003;28;20216;-77
2023/09/29 19:34:37;;;;;;;2.50;0.88;;;;;;;;;;20858594;28;20192;-78
2023/09/29 19:44:39;;;;;;;1.75;0.77;;;;;;;;;;20881815;28;20270;-78
2023/09/29 19:54:46;;;;;;;2.77;1.27;;;;;;;;;;20877811;28;20232;-78
